Lady Nur — 3FFE2 — position and weather

sailwx.info

Track history (hours):
 
Tides and Currents Weather Stations Pressure Air Temp Water Temp Dewpoint Dewpoint Depression Visibility Wind Speed Wind Dir Waves Ship Positions

Lady Nur

Last reported at 2016-May-25 11:30 UTC. Time now 2016-May-29 17:21 UTC.
Position N 40°51' E 029°17'.

Length 88 m; draft 5.3 m.

Type: Cargo ship. MMSI: 373237000.

Date/timePositionNaut miles runAvg speedWind from/ knotsBaromVisibWave heightAir tempDewpointWater temp
2016-May-25 11:30N 40°51' E 029°17'  
2016-May-19 08:32N 40°51' E 029°17'0 0.0
2016-May-19 07:32N 40°51' E 029°17'0 0.0
2016-May-19 06:20N 40°51' E 029°17'0 0.0
2016-May-19 05:32N 40°51' E 029°17'0 0.0
2016-May-19 04:32N 40°51' E 029°17'0 0.0
2016-May-19 03:32N 40°51' E 029°17'0 0.0
2016-May-19 02:32N 40°51' E 029°17'0 0.0
2016-May-19 01:32N 40°51' E 029°17'0 0.0
2016-May-19 00:32N 40°51' E 029°17'0 0.0
2016-May-18 23:26N 40°51' E 029°17'0 0.0
2016-May-18 22:32N 40°51' E 029°17'0 0.0
2016-May-18 21:32N 40°51' E 029°17'0 0.0
2016-May-18 20:32N 40°51' E 029°17'0 0.0
2016-May-18 19:20N 40°51' E 029°17'0 0.0
2016-May-18 18:32N 40°51' E 029°17'0 0.0
2016-May-18 17:32N 40°51' E 029°17'0 0.0
2016-May-18 16:32N 40°51' E 029°17'0 0.0
2016-May-18 15:32N 40°51' E 029°17'0 0.0
2016-May-18 14:26N 40°51' E 029°17'0 0.0
2016-May-18 13:32N 40°51' E 029°17'0 0.0
2016-May-18 12:32N 40°51' E 029°17'0 0.0
2016-May-18 11:32N 40°51' E 029°17'0 0.0
2016-May-18 10:26N 40°51' E 029°17'0 0.0
2016-May-18 09:31N 40°51' E 029°17'0 0.0
2016-May-18 08:31N 40°51' E 029°17'0 0.0
2016-May-18 07:25N 40°51' E 029°17'2 1.8
2016-May-18 06:30N 40°51' E 029°15'1 0.7
2016-May-18 05:30N 40°50' E 029°15'0 0.0
2016-May-18 04:30N 40°50' E 029°15'0 0.0
2016-May-18 03:30N 40°50' E 029°15'0 0.0
2016-May-18 02:30N 40°50' E 029°15'0 0.0
2016-May-18 01:12N 40°50' E 029°15'0 0.0
2016-May-18 00:30N 40°50' E 029°15'0 0.0
2016-May-17 23:30N 40°50' E 029°15'0 0.0
2016-May-17 22:30N 40°50' E 029°15'0 0.0
2016-May-17 21:30N 40°50' E 029°15'0 0.0
2016-May-17 20:30N 40°50' E 029°15'0 0.0
2016-May-17 19:29N 40°50' E 029°15'0 0.1
2016-May-17 18:33N 40°50' E 029°15'2 2.5
2016-May-17 17:33N 40°50' E 029°12'9 8.3
2016-May-17 16:32N 40°50' E 029°00'10 0.4
2016-May-16 17:24N 40°59' E 028°57'0 0.0
2016-May-16 11:18N 40°59' E 028°57'0 0.0
2016-May-15 22:29N 40°59' E 028°57'0 0.0
2016-May-15 21:29N 40°59' E 028°57'0 0.0
2016-May-15 20:29N 40°59' E 028°57'0 0.0
2016-May-15 15:24N 40°59' E 028°57'0 0.0
2016-May-15 13:24N 40°59' E 028°57'  
Track history (hours):
 
Tides and Currents Weather Stations Pressure Air Temp Water Temp Dewpoint Dewpoint Depression Visibility Wind Speed Wind Dir Waves Ship Positions

Lady Nur

Last reported at 2016-May-25 11:30 UTC. Time now 2016-May-29 17:21 UTC.
Position N 40°51' E 029°17'.

Length 88 m; draft 5.3 m.

Type: Cargo ship. MMSI: 373237000.

Date/timePositionNaut miles runAvg speedWind from/ knotsBaromVisibWave heightAir tempDewpointWater temp
2016-May-25 11:30N 40°51' E 029°17'  
2016-May-19 08:32N 40°51' E 029°17'0 0.0
2016-May-19 07:32N 40°51' E 029°17'0 0.0
2016-May-19 06:20N 40°51' E 029°17'0 0.0
2016-May-19 05:32N 40°51' E 029°17'0 0.0
2016-May-19 04:32N 40°51' E 029°17'0 0.0
2016-May-19 03:32N 40°51' E 029°17'0 0.0
2016-May-19 02:32N 40°51' E 029°17'0 0.0
2016-May-19 01:32N 40°51' E 029°17'0 0.0
2016-May-19 00:32N 40°51' E 029°17'0 0.0
2016-May-18 23:26N 40°51' E 029°17'0 0.0
2016-May-18 22:32N 40°51' E 029°17'0 0.0
2016-May-18 21:32N 40°51' E 029°17'0 0.0
2016-May-18 20:32N 40°51' E 029°17'0 0.0
2016-May-18 19:20N 40°51' E 029°17'0 0.0
2016-May-18 18:32N 40°51' E 029°17'0 0.0
2016-May-18 17:32N 40°51' E 029°17'0 0.0
2016-May-18 16:32N 40°51' E 029°17'0 0.0
2016-May-18 15:32N 40°51' E 029°17'0 0.0
2016-May-18 14:26N 40°51' E 029°17'0 0.0
2016-May-18 13:32N 40°51' E 029°17'0 0.0
2016-May-18 12:32N 40°51' E 029°17'0 0.0
2016-May-18 11:32N 40°51' E 029°17'0 0.0
2016-May-18 10:26N 40°51' E 029°17'0 0.0
2016-May-18 09:31N 40°51' E 029°17'0 0.0
2016-May-18 08:31N 40°51' E 029°17'0 0.0
2016-May-18 07:25N 40°51' E 029°17'2 1.8
2016-May-18 06:30N 40°51' E 029°15'1 0.7
2016-May-18 05:30N 40°50' E 029°15'0 0.0
2016-May-18 04:30N 40°50' E 029°15'0 0.0
2016-May-18 03:30N 40°50' E 029°15'0 0.0
2016-May-18 02:30N 40°50' E 029°15'0 0.0
2016-May-18 01:12N 40°50' E 029°15'0 0.0
2016-May-18 00:30N 40°50' E 029°15'0 0.0
2016-May-17 23:30N 40°50' E 029°15'0 0.0
2016-May-17 22:30N 40°50' E 029°15'0 0.0
2016-May-17 21:30N 40°50' E 029°15'0 0.0
2016-May-17 20:30N 40°50' E 029°15'0 0.0
2016-May-17 19:29N 40°50' E 029°15'0 0.1
2016-May-17 18:33N 40°50' E 029°15'2 2.5
2016-May-17 17:33N 40°50' E 029°12'9 8.3
2016-May-17 16:32N 40°50' E 029°00'10 0.4
2016-May-16 17:24N 40°59' E 028°57'0 0.0
2016-May-16 11:18N 40°59' E 028°57'0 0.0
2016-May-15 22:29N 40°59' E 028°57'0 0.0
2016-May-15 21:29N 40°59' E 028°57'0 0.0
2016-May-15 20:29N 40°59' E 028°57'0 0.0
2016-May-15 15:24N 40°59' E 028°57'0 0.0
2016-May-15 13:24N 40°59' E 028°57'  

Dump ship's entire track history